Terminal Aerodrome Forecast
Issued by NWS

Home | Current Version | Previous Version | Text Only | Print | Product List | Glossary On
Versions: 1 2 3 4 5 6 7 8 9 10 11 12 13 14 15 16 17 18 19 20 21
000
FTUS44 KLZK 280500
TAFLLQ
TAF
KLLQ 280521Z 2806/0106 04006KT P6SM SCT050 BKN100
     FM281400 05007KT P6SM SCT025 OVC050
     FM282000 09007KT 6SM BR OVC030
     FM010100 08005KT P6SM OVC040=

USA.gov is the U.S. government's official web portal to all federal, state and local government web resources and services.